WetterOnline ( http://www.wetteronline.de )

Wetter aktuell Ghedi

Aktuelles Wetter: Ghedi (97m)

6-stündlich | Neueste Meldungen
Ortszeit Temperatur Wetter
So, 16.12. 13:00 1.3° C bedeckt
So, 16.12. 7:00 -1.0° C wolkig
So, 16.12. 1:00 -2.4° C leicht bewölkt
Sa, 15.12. 19:00 -1.8° C wolkenlos
Sa, 15.12. 13:00 3.6° C wolkenlos
Sa, 15.12. 7:00 -5.1° C wolkenlos
Sa, 15.12. 1:00 -3.0° C wolkenlos
Fr, 14.12. 19:00 -0.0° C wolkenlos
Ortszeit Temperatur Wetter
So, 16.12. 13:00 1.3° C bedeckt
So, 16.12. 12:55 1° C bewölkt, Dunst
So, 16.12. 12:00 1.0° C bedeckt
So, 16.12. 11:55 1° C bewölkt, Dunst
So, 16.12. 11:00 0.1° C Dunst
So, 16.12. 10:55 0° C bewölkt, Dunst
So, 16.12. 10:00 0.0° C Dunst
So, 16.12. 9:55 0° C bewölkt, Dunst
So, 16.12. 9:00 0.0° C Dunst
Ortszeit Relative Feuchte Sichtweite
So, 16.12. 13:00 86% 5.0 km
So, 16.12. 7:00 100% 5.0 km
So, 16.12. 1:00 100% 4.5 km
Sa, 15.12. 19:00 96% 8 km
Sa, 15.12. 13:00 74% 15 km
Sa, 15.12. 7:00 100% 10 km
Sa, 15.12. 1:00 95% 10 km
Fr, 14.12. 19:00 77% 10 km
Ortszeit Relative Feuchte Sichtweite
So, 16.12. 13:00 86% 5.0 km
So, 16.12. 12:55 86% 5.0 km
So, 16.12. 12:00 95% 4.0 km
So, 16.12. 11:55 93% 4.0 km
So, 16.12. 11:00 99% 3.0 km
So, 16.12. 10:55 100% 3.0 km
So, 16.12. 10:00 99% 3.0 km
So, 16.12. 9:55 100% 3.0 km
So, 16.12. 9:00 100% 3.0 km
Ortszeit Niederschlagsmenge Niederschlagsart
So, 16.12. 13:00 0.0 l/m2 in 6 Std. -
So, 16.12. 7:00 0.0 l/m2 in 12 Std. -
So, 16.12. 1:00 0.0 l/m2 in 6 Std. -
Sa, 15.12. 19:00 0.0 l/m2 in 12 Std. -
Sa, 15.12. 13:00 0.0 l/m2 in 6 Std. -
Sa, 15.12. 7:00 0.0 l/m2 in 12 Std. -
Sa, 15.12. 1:00 0.0 l/m2 in 6 Std. -
Fr, 14.12. 19:00 0.0 l/m2 in 12 Std. -
Ortszeit Niederschlagsmenge Niederschlagsart
So, 16.12. 13:00 keine Meldung -
So, 16.12. 12:55 keine Meldung -
So, 16.12. 12:00 keine Meldung -
So, 16.12. 11:55 keine Meldung -
So, 16.12. 11:00 keine Meldung -
So, 16.12. 10:55 keine Meldung -
So, 16.12. 10:00 keine Meldung -
So, 16.12. 9:55 keine Meldung -
So, 16.12. 9:00 keine Meldung -
Ortszeit Stärke Spitze Richtung
km/h Bft. km/h Grad Sektor
So, 16.12. 13:00 2 1 - 250° W
So, 16.12. 7:00 11 2 - 60° NO
So, 16.12. 1:00 2 1 - 50° NO
Sa, 15.12. 19:00 4 1 - 290° W
Sa, 15.12. 13:00 13 3 - 270° W
Sa, 15.12. 7:00 4 1 - 60° NO
Sa, 15.12. 1:00 4 1 - 10° N
Fr, 14.12. 19:00 0 0 - - -
Ortszeit Stärke Spitze Richtung
km/h Bft. km/h Grad Sektor
So, 16.12. 13:00 2 1 - 250° W
So, 16.12. 12:55 2 1 - 250° W
So, 16.12. 12:00 2 1 - 240° SW
So, 16.12. 11:55 2 1 - 240° SW
So, 16.12. 11:00 4 1 - 240° SW
So, 16.12. 10:55 4 1 - 240° SW
So, 16.12. 10:00 2 1 - 150° SO
So, 16.12. 9:55 2 1 - 150° SO
So, 16.12. 9:00 2 1 - 270° W
Ortszeit Untergrenze Bedeckung Gattung
total tief tief mittel hoch
So, 16.12. 13:00 1200 m 8/8 8/8 Sc - -
So, 16.12. 7:00 1350 m 6/8 4/8 Sc Ac -
So, 16.12. 1:00 3900 m 4/8 4/8 - Ac -
Sa, 15.12. 19:00 - 0/8 0/8 - - -
Sa, 15.12. 13:00 - 0/8 0/8 - - -
Sa, 15.12. 7:00 - 0/8 0/8 - - -
Sa, 15.12. 1:00 - 0/8 0/8 - - -
Fr, 14.12. 19:00 - 0/8 0/8 - - -
Ortszeit Bedeckungsgrad in Achtel und Wolkenuntergrenze
So, 16.12. 13:00 3(1200m) 5(1500m)
So, 16.12. 12:55 3-4(1200m) 5-7(1500m)
So, 16.12. 12:00 3(1200m) 5(1410m)
So, 16.12. 11:55 3-4(1200m) 5-7(1410m)
So, 16.12. 11:00 7(1320m)
So, 16.12. 10:55 5-7(1320m)
So, 16.12. 10:00 7(1260m)
So, 16.12. 9:55 5-7(1260m)
So, 16.12. 9:00 2(990m) 5(1320m)
Ortszeit Luftdruck NN (hPa) Tendenz (hPa in 3 Std.)
So, 16.12. 13:00 1020 + 0,2
So, 16.12. 7:00 1020 - 0,7
So, 16.12. 1:00 1021 - 0,1
Sa, 15.12. 19:00 1021 + 0,6
Sa, 15.12. 13:00 1021 - 0,4
Sa, 15.12. 7:00 1020 + 0,2
Sa, 15.12. 1:00 1020 + 0,1
Fr, 14.12. 19:00 1018 + 0,5
Ortszeit Luftdruck NN (hPa) Tendenz (hPa in 3 Std.)
So, 16.12. 13:00 1020 + 0,2
So, 16.12. 12:55 1019 keine Meldung
So, 16.12. 12:00 1021 + 1,0
So, 16.12. 11:55 1019 keine Meldung
So, 16.12. 11:00 1021 + 0,5
So, 16.12. 10:55 1019 keine Meldung
So, 16.12. 10:00 1020 + 0,2
So, 16.12. 9:55 1019 keine Meldung
So, 16.12. 9:00 1020 - 0,4
Ortszeit Schneehöhe (cm)
So, 16.12. 13:00 -
So, 16.12. 7:00 0
So, 16.12. 1:00 -
Sa, 15.12. 19:00 -
Sa, 15.12. 13:00 -
Sa, 15.12. 7:00 0
Sa, 15.12. 1:00 -
Fr, 14.12. 19:00 -
Ortszeit Schneehöhe (cm)
So, 16.12. 13:00 -
So, 16.12. 12:55 -
So, 16.12. 12:00 -
So, 16.12. 11:55 -
So, 16.12. 11:00 -
So, 16.12. 10:55 -
So, 16.12. 10:00 -
So, 16.12. 9:55 -
So, 16.12. 9:00 -
Link zu dieser Seite / Seite empfehlen

Das Wetter in ...